sensor_id;sensor_type;location;lat;lon;timestamp;pressure;altitude;pressure_sealevel;temperature;humidity
24858;BME280;12935;50.782;6.074;2023-09-19T00:01:06;98866.00;;;16.68;100.00
24858;BME280;12935;50.782;6.074;2023-09-19T00:03:36;98862.81;;;16.57;100.00
24858;BME280;12935;50.782;6.074;2023-09-19T00:06:03;98863.78;;;16.85;100.00
24858;BME280;12935;50.782;6.074;2023-09-19T00:08:30;98872.63;;;17.02;100.00
24858;BME280;12935;50.782;6.074;2023-09-19T00:11:01;98869.59;;;16.78;100.00
24858;BME280;12935;50.782;6.074;2023-09-19T00:13:29;98877.72;;;16.81;100.00
24858;BME280;12935;50.782;6.074;2023-09-19T00:15:56;98886.69;;;16.51;100.00
24858;BME280;12935;50.782;6.074;2023-09-19T00:18:25;98874.72;;;16.67;100.00
24858;BME280;12935;50.782;6.074;2023-09-19T00:20:58;98876.13;;;16.71;100.00
24858;BME280;12935;50.782;6.074;2023-09-19T00:23:23;98873.41;;;16.59;100.00
24858;BME280;12935;50.782;6.074;2023-09-19T00:25:50;98889.19;;;16.58;100.00
24858;BME280;12935;50.782;6.074;2023-09-19T00:28:17;98887.31;;;16.55;100.00
24858;BME280;12935;50.782;6.074;2023-09-19T00:30:44;98891.81;;;16.62;100.00
24858;BME280;12935;50.782;6.074;2023-09-19T00:33:10;98902.31;;;16.67;100.00
24858;BME280;12935;50.782;6.074;2023-09-19T00:35:56;98902.84;;;16.62;100.00
24858;BME280;12935;50.782;6.074;2023-09-19T00:38:22;98897.69;;;16.64;100.00
24858;BME280;12935;50.782;6.074;2023-09-19T00:40:53;98896.53;;;16.39;100.00
24858;BME280;12935;50.782;6.074;2023-09-19T00:43:20;98911.09;;;16.40;100.00
24858;BME280;12935;50.782;6.074;2023-09-19T00:45:47;98901.56;;;16.32;100.00
24858;BME280;12935;50.782;6.074;2023-09-19T00:48:14;98904.09;;;16.26;100.00
24858;BME280;12935;50.782;6.074;2023-09-19T00:50:42;98906.19;;;16.35;100.00
24858;BME280;12935;50.782;6.074;2023-09-19T00:53:09;98909.72;;;16.35;100.00
24858;BME280;12935;50.782;6.074;2023-09-19T00:55:39;98907.94;;;16.29;100.00
24858;BME280;12935;50.782;6.074;2023-09-19T00:58:08;98921.78;;;16.16;100.00
24858;BME280;12935;50.782;6.074;2023-09-19T01:00:38;98929.94;;;16.20;100.00
24858;BME280;12935;50.782;6.074;2023-09-19T01:03:05;98925.19;;;16.07;100.00
24858;BME280;12935;50.782;6.074;2023-09-19T01:05:35;98927.09;;;15.98;100.00
24858;BME280;12935;50.782;6.074;2023-09-19T01:08:01;98938.88;;;16.11;100.00
24858;BME280;12935;50.782;6.074;2023-09-19T01:10:27;98948.38;;;15.97;100.00
24858;BME280;12935;50.782;6.074;2023-09-19T01:13:10;98942.66;;;15.92;100.00
24858;BME280;12935;50.782;6.074;2023-09-19T01:16:09;98934.50;;;15.75;100.00
24858;BME280;12935;50.782;6.074;2023-09-19T01:18:47;98931.56;;;15.70;100.00
24858;BME280;12935;50.782;6.074;2023-09-19T01:24:22;98938.50;;;15.87;100.00
24858;BME280;12935;50.782;6.074;2023-09-19T01:29:51;98941.66;;;15.98;100.00
24858;BME280;12935;50.782;6.074;2023-09-19T01:32:21;98941.97;;;16.00;100.00
24858;BME280;12935;50.782;6.074;2023-09-19T01:34:55;98952.50;;;15.67;100.00
24858;BME280;12935;50.782;6.074;2023-09-19T01:37:24;98946.53;;;15.69;100.00
24858;BME280;12935;50.782;6.074;2023-09-19T01:40:00;98955.34;;;15.64;100.00
24858;BME280;12935;50.782;6.074;2023-09-19T01:47:53;98961.16;;;15.53;100.00
24858;BME280;12935;50.782;6.074;2023-09-19T01:50:29;98967.19;;;15.35;100.00
24858;BME280;12935;50.782;6.074;2023-09-19T01:52:59;98965.91;;;15.53;100.00
24858;BME280;12935;50.782;6.074;2023-09-19T01:55:30;98969.34;;;15.69;100.00
24858;BME280;12935;50.782;6.074;2023-09-19T01:58:05;98974.94;;;15.78;100.00
24858;BME280;12935;50.782;6.074;2023-09-19T02:00:34;98976.28;;;15.74;100.00
24858;BME280;12935;50.782;6.074;2023-09-19T02:03:02;98968.91;;;15.71;100.00
24858;BME280;12935;50.782;6.074;2023-09-19T02:05:28;98974.25;;;15.49;100.00
24858;BME280;12935;50.782;6.074;2023-09-19T02:07:54;98969.53;;;15.50;100.00
24858;BME280;12935;50.782;6.074;2023-09-19T02:10:21;98974.91;;;15.40;100.00
24858;BME280;12935;50.782;6.074;2023-09-19T02:12:48;98975.38;;;15.52;100.00
24858;BME280;12935;50.782;6.074;2023-09-19T02:15:14;98979.41;;;15.34;100.00
24858;BME280;12935;50.782;6.074;2023-09-19T02:17:42;98980.31;;;15.44;100.00
24858;BME280;12935;50.782;6.074;2023-09-19T02:20:09;98980.63;;;15.46;100.00
24858;BME280;12935;50.782;6.074;2023-09-19T02:22:35;98987.09;;;15.27;100.00
24858;BME280;12935;50.782;6.074;2023-09-19T02:25:01;98986.53;;;15.06;100.00
24858;BME280;12935;50.782;6.074;2023-09-19T02:27:27;98989.19;;;15.10;100.00
24858;BME280;12935;50.782;6.074;2023-09-19T02:29:52;98990.50;;;15.18;100.00
24858;BME280;12935;50.782;6.074;2023-09-19T02:32:17;98987.41;;;15.16;100.00
24858;BME280;12935;50.782;6.074;2023-09-19T02:34:44;98991.66;;;14.92;100.00
24858;BME280;12935;50.782;6.074;2023-09-19T02:37:10;99000.91;;;14.98;100.00
24858;BME280;12935;50.782;6.074;2023-09-19T02:39:35;98995.59;;;14.91;100.00
24858;BME280;12935;50.782;6.074;2023-09-19T02:42:01;98992.47;;;15.05;100.00
24858;BME280;12935;50.782;6.074;2023-09-19T02:44:29;98990.59;;;15.15;100.00
24858;BME280;12935;50.782;6.074;2023-09-19T02:46:55;98989.09;;;15.26;100.00
24858;BME280;12935;50.782;6.074;2023-09-19T02:49:23;98984.91;;;15.34;100.00
24858;BME280;12935;50.782;6.074;2023-09-19T02:51:48;98979.59;;;15.15;100.00
24858;BME280;12935;50.782;6.074;2023-09-19T02:54:14;98983.25;;;14.83;100.00
24858;BME280;12935;50.782;6.074;2023-09-19T02:56:40;98978.56;;;14.67;100.00
24858;BME280;12935;50.782;6.074;2023-09-19T02:59:09;98976.91;;;14.69;100.00
24858;BME280;12935;50.782;6.074;2023-09-19T03:01:36;98983.97;;;14.70;100.00
24858;BME280;12935;50.782;6.074;2023-09-19T03:04:04;98986.66;;;14.87;100.00
24858;BME280;12935;50.782;6.074;2023-09-19T03:06:33;98981.41;;;14.92;100.00
24858;BME280;12935;50.782;6.074;2023-09-19T03:08:59;98981.16;;;14.87;100.00
24858;BME280;12935;50.782;6.074;2023-09-19T03:11:25;98969.22;;;14.93;100.00
24858;BME280;12935;50.782;6.074;2023-09-19T03:13:52;98978.50;;;14.83;100.00
24858;BME280;12935;50.782;6.074;2023-09-19T03:16:19;98975.16;;;14.92;100.00
24858;BME280;12935;50.782;6.074;2023-09-19T03:18:47;98974.59;;;14.97;100.00
24858;BME280;12935;50.782;6.074;2023-09-19T03:21:14;98987.63;;;15.09;100.00
24858;BME280;12935;50.782;6.074;2023-09-19T03:23:40;98988.75;;;14.83;100.00
24858;BME280;12935;50.782;6.074;2023-09-19T03:26:06;98996.84;;;14.73;100.00
24858;BME280;12935;50.782;6.074;2023-09-19T03:28:33;98994.25;;;14.83;100.00
24858;BME280;12935;50.782;6.074;2023-09-19T03:31:03;99011.47;;;14.99;100.00
24858;BME280;12935;50.782;6.074;2023-09-19T03:33:29;98996.00;;;15.18;100.00
24858;BME280;12935;50.782;6.074;2023-09-19T03:35:58;99000.19;;;15.10;100.00
24858;BME280;12935;50.782;6.074;2023-09-19T03:38:25;99001.06;;;15.07;100.00
24858;BME280;12935;50.782;6.074;2023-09-19T03:40:51;99003.59;;;15.14;100.00
24858;BME280;12935;50.782;6.074;2023-09-19T03:43:17;99006.31;;;15.01;100.00
24858;BME280;12935;50.782;6.074;2023-09-19T03:45:42;99011.56;;;14.96;100.00
24858;BME280;12935;50.782;6.074;2023-09-19T03:48:09;99001.38;;;15.09;100.00
24858;BME280;12935;50.782;6.074;2023-09-19T03:50:34;99006.22;;;15.05;100.00
24858;BME280;12935;50.782;6.074;2023-09-19T03:53:00;99008.66;;;15.16;100.00
24858;BME280;12935;50.782;6.074;2023-09-19T03:55:25;99006.66;;;15.03;100.00
24858;BME280;12935;50.782;6.074;2023-09-19T03:57:51;98998.47;;;15.00;100.00
24858;BME280;12935;50.782;6.074;2023-09-19T04:00:18;98993.38;;;14.86;100.00
24858;BME280;12935;50.782;6.074;2023-09-19T04:02:47;98994.72;;;14.65;100.00
24858;BME280;12935;50.782;6.074;2023-09-19T04:05:13;98994.59;;;14.85;100.00
24858;BME280;12935;50.782;6.074;2023-09-19T04:07:38;98993.41;;;14.98;100.00
24858;BME280;12935;50.782;6.074;2023-09-19T04:10:04;98990.84;;;14.79;100.00
24858;BME280;12935;50.782;6.074;2023-09-19T04:12:30;98992.41;;;14.63;100.00
24858;BME280;12935;50.782;6.074;2023-09-19T04:14:56;98999.69;;;14.70;100.00
24858;BME280;12935;50.782;6.074;2023-09-19T04:17:21;98996.16;;;14.69;100.00
24858;BME280;12935;50.782;6.074;2023-09-19T04:19:48;98996.00;;;14.77;100.00
24858;BME280;12935;50.782;6.074;2023-09-19T04:22:14;98996.41;;;14.75;100.00
24858;BME280;12935;50.782;6.074;2023-09-19T04:24:39;98994.97;;;14.70;100.00
24858;BME280;12935;50.782;6.074;2023-09-19T04:27:05;98994.66;;;14.52;100.00
24858;BME280;12935;50.782;6.074;2023-09-19T04:29:32;99000.75;;;14.60;100.00
24858;BME280;12935;50.782;6.074;2023-09-19T04:31:57;98996.97;;;14.54;100.00
24858;BME280;12935;50.782;6.074;2023-09-19T04:34:23;98994.56;;;14.56;100.00
24858;BME280;12935;50.782;6.074;2023-09-19T04:36:50;98990.34;;;14.51;100.00
24858;BME280;12935;50.782;6.074;2023-09-19T04:39:15;98994.44;;;14.47;100.00
24858;BME280;12935;50.782;6.074;2023-09-19T04:41:42;99009.59;;;14.51;100.00
24858;BME280;12935;50.782;6.074;2023-09-19T04:44:07;99003.69;;;14.53;100.00
24858;BME280;12935;50.782;6.074;2023-09-19T04:46:36;99010.47;;;14.48;100.00
24858;BME280;12935;50.782;6.074;2023-09-19T04:49:01;99015.50;;;14.33;100.00
24858;BME280;12935;50.782;6.074;2023-09-19T04:51:30;99022.56;;;14.51;100.00
24858;BME280;12935;50.782;6.074;2023-09-19T04:53:59;99021.47;;;14.48;100.00
24858;BME280;12935;50.782;6.074;2023-09-19T04:56:25;99020.34;;;14.62;100.00
24858;BME280;12935;50.782;6.074;2023-09-19T04:58:51;99024.09;;;14.68;100.00
24858;BME280;12935;50.782;6.074;2023-09-19T05:01:19;99028.50;;;14.49;100.00
24858;BME280;12935;50.782;6.074;2023-09-19T05:03:47;99032.28;;;14.39;100.00
24858;BME280;12935;50.782;6.074;2023-09-19T05:06:17;99040.53;;;14.55;100.00
24858;BME280;12935;50.782;6.074;2023-09-19T05:08:43;99037.94;;;14.64;100.00
24858;BME280;12935;50.782;6.074;2023-09-19T05:11:08;99042.59;;;14.51;100.00
24858;BME280;12935;50.782;6.074;2023-09-19T05:13:34;99043.88;;;14.63;100.00
24858;BME280;12935;50.782;6.074;2023-09-19T05:16:00;99044.06;;;14.56;100.00
24858;BME280;12935;50.782;6.074;2023-09-19T05:18:27;99044.84;;;14.56;100.00
24858;BME280;12935;50.782;6.074;2023-09-19T05:20:53;99043.13;;;14.62;100.00
24858;BME280;12935;50.782;6.074;2023-09-19T05:23:19;99057.13;;;14.52;100.00
24858;BME280;12935;50.782;6.074;2023-09-19T05:25:46;99046.38;;;14.41;100.00
24858;BME280;12935;50.782;6.074;2023-09-19T05:28:11;99065.69;;;14.37;100.00
24858;BME280;12935;50.782;6.074;2023-09-19T05:30:40;99067.19;;;14.42;100.00
24858;BME280;12935;50.782;6.074;2023-09-19T05:33:06;99067.19;;;14.42;100.00
24858;BME280;12935;50.782;6.074;2023-09-19T05:35:32;99066.53;;;14.34;100.00
24858;BME280;12935;50.782;6.074;2023-09-19T05:37:57;99068.00;;;14.39;100.00
24858;BME280;12935;50.782;6.074;2023-09-19T05:40:24;99074.88;;;14.31;100.00
24858;BME280;12935;50.782;6.074;2023-09-19T05:42:49;99071.91;;;14.42;100.00
24858;BME280;12935;50.782;6.074;2023-09-19T05:45:17;99078.59;;;14.41;100.00
24858;BME280;12935;50.782;6.074;2023-09-19T05:47:51;99085.38;;;14.52;100.00
24858;BME280;12935;50.782;6.074;2023-09-19T05:50:21;99074.56;;;14.61;100.00
24858;BME280;12935;50.782;6.074;2023-09-19T05:52:53;99095.09;;;14.57;100.00
24858;BME280;12935;50.782;6.074;2023-09-19T05:55:21;99085.22;;;14.43;100.00
24858;BME280;12935;50.782;6.074;2023-09-19T05:57:53;99087.97;;;14.43;100.00
24858;BME280;12935;50.782;6.074;2023-09-19T06:00:19;99088.47;;;14.54;100.00
24858;BME280;12935;50.782;6.074;2023-09-19T06:02:51;99101.94;;;14.65;100.00
24858;BME280;12935;50.782;6.074;2023-09-19T06:05:17;99093.53;;;14.72;100.00
24858;BME280;12935;50.782;6.074;2023-09-19T06:07:43;99103.84;;;14.68;100.00
24858;BME280;12935;50.782;6.074;2023-09-19T06:10:18;99102.41;;;14.63;100.00
24858;BME280;12935;50.782;6.074;2023-09-19T06:12:46;99114.25;;;14.77;100.00
24858;BME280;12935;50.782;6.074;2023-09-19T06:15:12;99106.66;;;14.81;100.00
24858;BME280;12935;50.782;6.074;2023-09-19T06:17:51;99113.19;;;14.87;100.00
24858;BME280;12935;50.782;6.074;2023-09-19T06:20:20;99113.91;;;14.74;100.00
24858;BME280;12935;50.782;6.074;2023-09-19T06:22:47;99117.66;;;14.81;100.00
24858;BME280;12935;50.782;6.074;2023-09-19T06:25:14;99111.41;;;14.80;100.00
24858;BME280;12935;50.782;6.074;2023-09-19T06:27:51;99110.03;;;14.88;100.00
24858;BME280;12935;50.782;6.074;2023-09-19T06:30:21;99116.88;;;14.96;100.00
24858;BME280;12935;50.782;6.074;2023-09-19T06:32:48;99110.72;;;14.92;100.00
24858;BME280;12935;50.782;6.074;2023-09-19T06:35:15;99115.94;;;15.03;100.00
24858;BME280;12935;50.782;6.074;2023-09-19T06:37:42;99105.06;;;15.12;100.00
24858;BME280;12935;50.782;6.074;2023-09-19T06:40:09;99108.75;;;14.77;100.00
24858;BME280;12935;50.782;6.074;2023-09-19T06:42:43;99103.06;;;14.67;100.00
24858;BME280;12935;50.782;6.074;2023-09-19T06:45:10;99103.59;;;14.79;100.00
24858;BME280;12935;50.782;6.074;2023-09-19T06:47:38;99113.56;;;14.72;100.00
24858;BME280;12935;50.782;6.074;2023-09-19T06:50:04;99101.78;;;14.72;100.00
24858;BME280;12935;50.782;6.074;2023-09-19T06:52:31;99112.25;;;14.93;100.00
24858;BME280;12935;50.782;6.074;2023-09-19T06:54:58;99110.09;;;15.01;100.00
24858;BME280;12935;50.782;6.074;2023-09-19T06:57:23;99109.78;;;15.12;100.00
24858;BME280;12935;50.782;6.074;2023-09-19T06:59:50;99105.06;;;15.12;100.00
24858;BME280;12935;50.782;6.074;2023-09-19T07:02:15;99106.03;;;15.05;100.00
24858;BME280;12935;50.782;6.074;2023-09-19T07:04:41;99105.75;;;15.16;100.00
24858;BME280;12935;50.782;6.074;2023-09-19T07:07:10;99109.13;;;15.07;100.00
24858;BME280;12935;50.782;6.074;2023-09-19T07:09:38;99104.88;;;15.19;100.00
24858;BME280;12935;50.782;6.074;2023-09-19T07:12:04;99108.41;;;14.91;100.00
24858;BME280;12935;50.782;6.074;2023-09-19T07:14:29;99108.88;;;15.02;100.00
24858;BME280;12935;50.782;6.074;2023-09-19T07:16:58;99117.19;;;15.15;100.00
24858;BME280;12935;50.782;6.074;2023-09-19T07:19:26;99120.88;;;15.24;100.00
24858;BME280;12935;50.782;6.074;2023-09-19T07:21:55;99125.44;;;15.15;100.00
24858;BME280;12935;50.782;6.074;2023-09-19T07:24:21;99130.22;;;15.27;100.00
24858;BME280;12935;50.782;6.074;2023-09-19T07:26:49;99128.16;;;15.31;100.00
24858;BME280;12935;50.782;6.074;2023-09-19T07:29:15;99116.41;;;15.43;100.00
24858;BME280;12935;50.782;6.074;2023-09-19T07:31:40;99125.09;;;15.58;100.00
24858;BME280;12935;50.782;6.074;2023-09-19T07:34:06;99136.16;;;15.70;100.00
24858;BME280;12935;50.782;6.074;2023-09-19T07:36:34;99133.44;;;15.83;100.00
24858;BME280;12935;50.782;6.074;2023-09-19T07:38:59;99139.81;;;15.80;100.00
24858;BME280;12935;50.782;6.074;2023-09-19T07:41:25;99140.34;;;15.75;100.00
24858;BME280;12935;50.782;6.074;2023-09-19T07:43:50;99139.81;;;15.93;100.00
24858;BME280;12935;50.782;6.074;2023-09-19T07:46:16;99139.53;;;16.03;100.00
24858;BME280;12935;50.782;6.074;2023-09-19T07:48:44;99133.19;;;15.90;100.00
24858;BME280;12935;50.782;6.074;2023-09-19T07:51:12;99139.38;;;15.82;100.00
24858;BME280;12935;50.782;6.074;2023-09-19T07:53:39;99152.78;;;15.67;100.00
24858;BME280;12935;50.782;6.074;2023-09-19T07:56:08;99147.44;;;15.89;100.00
24858;BME280;12935;50.782;6.074;2023-09-19T07:58:35;99134.44;;;15.89;100.00
24858;BME280;12935;50.782;6.074;2023-09-19T08:01:07;99139.38;;;15.94;100.00
24858;BME280;12935;50.782;6.074;2023-09-19T08:03:34;99131.03;;;15.98;100.00
24858;BME280;12935;50.782;6.074;2023-09-19T08:06:00;99137.22;;;16.02;100.00
24858;BME280;12935;50.782;6.074;2023-09-19T08:08:29;99126.72;;;15.97;100.00
24858;BME280;12935;50.782;6.074;2023-09-19T08:10:55;99126.72;;;15.97;100.00
24858;BME280;12935;50.782;6.074;2023-09-19T08:13:24;99126.72;;;16.09;100.00
24858;BME280;12935;50.782;6.074;2023-09-19T08:15:49;99119.81;;;16.18;100.00
24858;BME280;12935;50.782;6.074;2023-09-19T08:18:16;99116.28;;;16.17;100.00
24858;BME280;12935;50.782;6.074;2023-09-19T08:20:42;99117.78;;;15.93;100.00
24858;BME280;12935;50.782;6.074;2023-09-19T08:23:08;99123.63;;;16.07;100.00
24858;BME280;12935;50.782;6.074;2023-09-19T08:25:34;99126.19;;;16.14;100.00
24858;BME280;12935;50.782;6.074;2023-09-19T08:28:00;99132.56;;;16.24;100.00
24858;BME280;12935;50.782;6.074;2023-09-19T08:30:28;99138.31;;;16.30;100.00
24858;BME280;12935;50.782;6.074;2023-09-19T08:33:00;99132.25;;;16.47;100.00
24858;BME280;12935;50.782;6.074;2023-09-19T08:35:26;99137.69;;;16.64;100.00
24858;BME280;12935;50.782;6.074;2023-09-19T08:37:52;99134.81;;;16.67;100.00
24858;BME280;12935;50.782;6.074;2023-09-19T08:40:17;99131.38;;;16.76;100.00
24858;BME280;12935;50.782;6.074;2023-09-19T08:52:12;99142.97;;;16.83;100.00
24858;BME280;12935;50.782;6.074;2023-09-19T08:54:41;99139.63;;;16.89;100.00
24858;BME280;12935;50.782;6.074;2023-09-19T08:57:10;99143.13;;;17.02;100.00
24858;BME280;12935;50.782;6.074;2023-09-19T08:59:43;99142.56;;;17.07;100.00
24858;BME280;12935;50.782;6.074;2023-09-19T09:02:15;99144.53;;;17.06;100.00
24858;BME280;12935;50.782;6.074;2023-09-19T09:04:43;99144.66;;;17.15;100.00
24858;BME280;12935;50.782;6.074;2023-09-19T09:07:12;99136.38;;;17.03;100.00
24858;BME280;12935;50.782;6.074;2023-09-19T09:09:38;99151.13;;;17.22;100.00
24858;BME280;12935;50.782;6.074;2023-09-19T09:12:09;99134.31;;;17.29;100.00
24858;BME280;12935;50.782;6.074;2023-09-19T09:14:35;99137.34;;;17.43;100.00
24858;BME280;12935;50.782;6.074;2023-09-19T09:17:01;99143.19;;;17.45;100.00
24858;BME280;12935;50.782;6.074;2023-09-19T09:19:28;99130.53;;;17.35;100.00
24858;BME280;12935;50.782;6.074;2023-09-19T09:22:09;99138.31;;;17.49;100.00
24858;BME280;12935;50.782;6.074;2023-09-19T09:24:35;99150.28;;;17.46;100.00
24858;BME280;12935;50.782;6.074;2023-09-19T09:27:06;99134.56;;;17.22;100.00
24858;BME280;12935;50.782;6.074;2023-09-19T09:32:19;99123.91;;;17.33;100.00
24858;BME280;12935;50.782;6.074;2023-09-19T09:34:48;99144.66;;;17.37;100.00
24858;BME280;12935;50.782;6.074;2023-09-19T09:37:15;99136.28;;;17.63;100.00
24858;BME280;12935;50.782;6.074;2023-09-19T09:39:48;99132.78;;;17.49;100.00
24858;BME280;12935;50.782;6.074;2023-09-19T09:42:30;99132.59;;;17.44;100.00
24858;BME280;12935;50.782;6.074;2023-09-19T09:48:02;99129.66;;;18.13;100.00
24858;BME280;12935;50.782;6.074;2023-09-19T09:50:36;99127.13;;;18.28;98.92
24858;BME280;12935;50.782;6.074;2023-09-19T09:53:28;99134.16;;;18.19;95.23
24858;BME280;12935;50.782;6.074;2023-09-19T09:55:57;99139.69;;;18.19;95.00
24858;BME280;12935;50.782;6.074;2023-09-19T09:58:23;99124.78;;;18.17;92.08
24858;BME280;12935;50.782;6.074;2023-09-19T10:00:54;99123.03;;;18.41;90.76
24858;BME280;12935;50.782;6.074;2023-09-19T10:03:30;99130.84;;;18.43;92.46
24858;BME280;12935;50.782;6.074;2023-09-19T10:05:57;99143.28;;;18.69;89.65
24858;BME280;12935;50.782;6.074;2023-09-19T10:08:23;99126.91;;;18.53;87.39
24858;BME280;12935;50.782;6.074;2023-09-19T10:10:49;99146.56;;;18.46;88.81
24858;BME280;12935;50.782;6.074;2023-09-19T10:13:19;99129.91;;;18.77;88.26
24858;BME280;12935;50.782;6.074;2023-09-19T10:15:51;99136.84;;;18.81;87.91
24858;BME280;12935;50.782;6.074;2023-09-19T10:18:21;99134.84;;;18.73;86.37
24858;BME280;12935;50.782;6.074;2023-09-19T10:20:47;99127.13;;;18.68;86.55
24858;BME280;12935;50.782;6.074;2023-09-19T10:23:15;99121.00;;;18.91;87.41
24858;BME280;12935;50.782;6.074;2023-09-19T10:25:47;99122.88;;;19.21;85.97
24858;BME280;12935;50.782;6.074;2023-09-19T10:28:15;99129.97;;;19.13;83.43
24858;BME280;12935;50.782;6.074;2023-09-19T10:30:44;99122.75;;;19.25;84.46
24858;BME280;12935;50.782;6.074;2023-09-19T10:33:15;99121.06;;;19.27;81.04
24858;BME280;12935;50.782;6.074;2023-09-19T10:35:45;99113.38;;;19.32;76.34
24858;BME280;12935;50.782;6.074;2023-09-19T10:38:19;99125.19;;;19.05;77.97
24858;BME280;12935;50.782;6.074;2023-09-19T10:40:49;99123.34;;;19.11;76.92
24858;BME280;12935;50.782;6.074;2023-09-19T10:43:17;99115.22;;;19.35;77.06
24858;BME280;12935;50.782;6.074;2023-09-19T10:45:47;99122.75;;;19.43;76.33
24858;BME280;12935;50.782;6.074;2023-09-19T10:48:15;99129.69;;;19.48;75.14
24858;BME280;12935;50.782;6.074;2023-09-19T10:50:45;99118.59;;;19.48;73.20
24858;BME280;12935;50.782;6.074;2023-09-19T10:53:13;99119.34;;;19.48;74.60
24858;BME280;12935;50.782;6.074;2023-09-19T10:55:40;99128.75;;;19.33;75.95
24858;BME280;12935;50.782;6.074;2023-09-19T10:58:06;99126.91;;;19.48;76.24
24858;BME280;12935;50.782;6.074;2023-09-19T11:00:54;99124.59;;;19.19;75.91
24858;BME280;12935;50.782;6.074;2023-09-19T11:03:21;99128.72;;;19.05;77.66
24858;BME280;12935;50.782;6.074;2023-09-19T11:06:01;99127.97;;;19.14;78.78
24858;BME280;12935;50.782;6.074;2023-09-19T11:08:52;99134.44;;;19.02;77.94
24858;BME280;12935;50.782;6.074;2023-09-19T11:11:40;99145.22;;;19.18;77.38
24858;BME280;12935;50.782;6.074;2023-09-19T11:14:30;99141.22;;;19.19;76.72
24858;BME280;12935;50.782;6.074;2023-09-19T11:30:46;99133.84;;;19.52;74.12
24858;BME280;12935;50.782;6.074;2023-09-19T11:36:14;99125.28;;;20.02;66.31
24858;BME280;12935;50.782;6.074;2023-09-19T11:46:30;99132.91;;;21.39;60.98
24858;BME280;12935;50.782;6.074;2023-09-19T11:49:05;99119.03;;;21.53;59.64
24858;BME280;12935;50.782;6.074;2023-09-19T11:51:40;99111.09;;;22.05;58.99
24858;BME280;12935;50.782;6.074;2023-09-19T11:54:10;99126.97;;;22.84;55.57
24858;BME280;12935;50.782;6.074;2023-09-19T11:56:43;99121.59;;;23.21;53.15
24858;BME280;12935;50.782;6.074;2023-09-19T11:59:09;99116.22;;;23.37;51.14
24858;BME280;12935;50.782;6.074;2023-09-19T12:01:37;99109.38;;;22.92;51.93
24858;BME280;12935;50.782;6.074;2023-09-19T12:04:07;99117.75;;;22.43;54.75
24858;BME280;12935;50.782;6.074;2023-09-19T12:06:33;99114.59;;;22.50;53.24
24858;BME280;12935;50.782;6.074;2023-09-19T12:09:00;99106.22;;;23.05;53.61
24858;BME280;12935;50.782;6.074;2023-09-19T12:11:30;99120.97;;;23.52;51.57
24858;BME280;12935;50.782;6.074;2023-09-19T12:14:04;99119.13;;;23.49;50.06
24858;BME280;12935;50.782;6.074;2023-09-19T12:16:29;99114.16;;;22.92;51.23
24858;BME280;12935;50.782;6.074;2023-09-19T12:18:57;99110.00;;;23.48;50.80
24858;BME280;12935;50.782;6.074;2023-09-19T12:21:30;99116.28;;;24.21;49.95
24858;BME280;12935;50.782;6.074;2023-09-19T12:26:30;99112.72;;;23.89;48.28
24858;BME280;12935;50.782;6.074;2023-09-19T12:28:59;99103.81;;;23.38;49.70
24858;BME280;12935;50.782;6.074;2023-09-19T12:31:27;99096.91;;;24.11;48.48
24858;BME280;12935;50.782;6.074;2023-09-19T12:33:56;99109.53;;;24.33;46.65
24858;BME280;12935;50.782;6.074;2023-09-19T12:36:22;99101.22;;;24.44;46.63
24858;BME280;12935;50.782;6.074;2023-09-19T12:38:54;99099.97;;;24.13;47.16
24858;BME280;12935;50.782;6.074;2023-09-19T12:41:20;99090.59;;;24.17;48.21
24858;BME280;12935;50.782;6.074;2023-09-19T12:43:47;99081.41;;;24.42;47.72
24858;BME280;12935;50.782;6.074;2023-09-19T12:46:13;99091.75;;;24.78;47.26
24858;BME280;12935;50.782;6.074;2023-09-19T12:48:40;99091.78;;;25.49;47.13
24858;BME280;12935;50.782;6.074;2023-09-19T12:51:10;99077.81;;;25.66;45.29
24858;BME280;12935;50.782;6.074;2023-09-19T12:53:42;99073.78;;;25.95;43.73
24858;BME280;12935;50.782;6.074;2023-09-19T12:56:13;99070.66;;;25.53;44.15
24858;BME280;12935;50.782;6.074;2023-09-19T12:58:53;99069.91;;;25.53;44.03
24858;BME280;12935;50.782;6.074;2023-09-19T13:01:19;99073.22;;;24.81;45.03
24858;BME280;12935;50.782;6.074;2023-09-19T13:03:45;99070.19;;;25.49;44.70
24858;BME280;12935;50.782;6.074;2023-09-19T13:06:11;99066.66;;;26.10;43.17
24858;BME280;12935;50.782;6.074;2023-09-19T13:08:40;99060.88;;;26.94;41.19
24858;BME280;12935;50.782;6.074;2023-09-19T13:13:40;99060.75;;;25.47;43.44
24858;BME280;12935;50.782;6.074;2023-09-19T13:16:06;99075.31;;;24.12;46.77
24858;BME280;12935;50.782;6.074;2023-09-19T13:18:44;99088.78;;;24.13;48.20
24858;BME280;12935;50.782;6.074;2023-09-19T13:21:12;99076.94;;;23.93;47.57
24858;BME280;12935;50.782;6.074;2023-09-19T13:23:43;99078.91;;;23.55;48.90
24858;BME280;12935;50.782;6.074;2023-09-19T13:26:11;99080.94;;;23.34;49.82
24858;BME280;12935;50.782;6.074;2023-09-19T13:28:40;99071.78;;;23.80;49.49
24858;BME280;12935;50.782;6.074;2023-09-19T13:31:05;99087.31;;;23.15;50.64
24858;BME280;12935;50.782;6.074;2023-09-19T13:33:31;99082.63;;;24.04;49.36
24858;BME280;12935;50.782;6.074;2023-09-19T13:35:56;99089.16;;;24.64;47.96
24858;BME280;12935;50.782;6.074;2023-09-19T13:38:22;99102.75;;;24.13;48.56
24858;BME280;12935;50.782;6.074;2023-09-19T13:40:48;99095.22;;;22.96;51.01
24858;BME280;12935;50.782;6.074;2023-09-19T13:43:13;99093.44;;;21.79;53.16
24858;BME280;12935;50.782;6.074;2023-09-19T13:45:39;99092.75;;;21.16;57.23
24858;BME280;12935;50.782;6.074;2023-09-19T13:48:07;99111.38;;;21.92;56.28
24858;BME280;12935;50.782;6.074;2023-09-19T13:50:34;99103.13;;;21.83;55.48
24858;BME280;12935;50.782;6.074;2023-09-19T13:52:59;99099.56;;;21.97;55.34
24858;BME280;12935;50.782;6.074;2023-09-19T13:55:28;99100.63;;;21.85;55.93